createdAt,value
2018-08-24T00:08:36.390Z,4.40
2018-08-24T00:12:30.320Z,5.10
2018-08-24T00:16:29.597Z,7.77
2018-08-24T00:20:23.584Z,10.53
2018-08-24T00:24:17.601Z,6.10
2018-08-24T00:28:11.554Z,6.37
2018-08-24T00:32:05.576Z,4.40
2018-08-24T00:35:59.509Z,6.33
2018-08-24T00:39:53.483Z,4.57
2018-08-24T00:43:47.542Z,5.10
2018-08-24T00:47:41.644Z,5.90
2018-08-24T00:51:35.567Z,6.10
2018-08-24T00:55:29.576Z,5.07
2018-08-24T00:59:23.584Z,5.77
2018-08-24T01:03:17.531Z,5.43
2018-08-24T01:07:12.656Z,5.22
2018-08-24T01:11:06.653Z,6.17
2018-08-24T01:15:00.598Z,4.83
2018-08-24T01:18:54.551Z,6.20
2018-08-24T01:22:48.516Z,6.40
2018-08-24T01:26:45.338Z,6.50
2018-08-24T01:30:39.284Z,5.83
2018-08-24T01:34:33.941Z,6.57
2018-08-24T01:38:27.892Z,8.30
2018-08-24T01:42:21.836Z,7.67
2018-08-24T01:46:16.192Z,7.23
2018-08-24T01:50:10.127Z,7.87
2018-08-24T01:54:04.115Z,7.83
2018-08-24T01:57:58.068Z,7.30
2018-08-24T02:01:52.059Z,7.23
2018-08-24T02:05:45.979Z,8.30
2018-08-24T02:09:39.956Z,9.10
2018-08-24T02:13:39.319Z,9.80
2018-08-24T02:17:38.534Z,9.07
2018-08-24T02:21:37.813Z,10.43
2018-08-24T02:25:31.846Z,11.87
2018-08-24T02:29:25.755Z,11.37
2018-08-24T02:33:19.739Z,12.93
2018-08-24T02:37:13.711Z,14.60
2018-08-24T02:41:07.701Z,11.43
2018-08-24T02:45:01.727Z,11.80
2018-08-24T02:48:55.624Z,12.17
2018-08-24T02:52:49.735Z,14.35
2018-08-24T02:56:43.760Z,13.47
2018-08-24T03:00:37.680Z,15.47
2018-08-24T03:04:31.775Z,15.17
2018-08-24T03:08:25.912Z,14.67
2018-08-24T03:12:19.859Z,14.33
2018-08-24T03:16:13.940Z,15.57
2018-08-24T03:20:07.845Z,13.77
2018-08-24T03:24:01.784Z,15.87
2018-08-24T03:27:55.678Z,14.63
2018-08-24T03:31:49.701Z,14.00
2018-08-24T03:35:43.659Z,19.00
2018-08-24T03:39:37.624Z,15.20
2018-08-24T03:43:31.700Z,16.83
2018-08-24T03:47:25.672Z,16.27
2018-08-24T03:51:19.687Z,16.27
2018-08-24T03:55:13.733Z,15.27
2018-08-24T03:59:13.249Z,18.83
2018-08-24T04:03:07.838Z,15.70
2018-08-24T04:07:01.818Z,17.63
2018-08-24T04:10:55.796Z,17.47
2018-08-24T04:14:49.763Z,16.13
2018-08-24T04:18:43.807Z,16.37
2018-08-24T04:22:37.764Z,16.70
2018-08-24T04:26:31.682Z,14.80
2018-08-24T04:30:25.701Z,14.17
2018-08-24T04:34:19.595Z,16.50
2018-08-24T04:38:13.516Z,15.37
2018-08-24T04:42:07.575Z,15.33
2018-08-24T04:46:01.568Z,14.83
2018-08-24T04:49:55.788Z,15.00
2018-08-24T04:53:49.705Z,14.30
2018-08-24T04:57:43.684Z,13.23
2018-08-24T05:01:37.715Z,14.30
2018-08-24T05:05:31.707Z,16.27
2018-08-24T05:09:25.706Z,17.27
2018-08-24T05:13:19.686Z,11.57
2018-08-24T05:17:13.636Z,13.93
2018-08-24T05:21:07.625Z,11.53
2018-08-24T05:25:01.646Z,12.07
2018-08-24T05:28:55.583Z,12.53
2018-08-24T05:32:49.541Z,14.07
2018-08-24T05:36:43.517Z,11.87
2018-08-24T05:40:37.557Z,10.87
2018-08-24T05:44:31.488Z,9.23
2018-08-24T05:48:25.497Z,11.47
2018-08-24T05:52:19.701Z,13.87
2018-08-24T05:56:13.712Z,17.07
2018-08-24T06:00:07.770Z,13.93
2018-08-24T06:04:01.961Z,18.83
2018-08-24T06:07:55.993Z,19.43
2018-08-24T06:11:49.972Z,15.67
2018-08-24T06:15:44.525Z,16.13
2018-08-24T06:19:38.630Z,15.07
2018-08-24T06:23:32.753Z,20.73
2018-08-24T06:27:26.824Z,17.17
2018-08-24T06:31:20.827Z,17.03
2018-08-24T06:35:15.016Z,16.77
2018-08-24T06:39:11.047Z,18.10
2018-08-24T06:43:05.239Z,16.97
2018-08-24T06:46:59.207Z,14.43
2018-08-24T06:50:53.167Z,13.77
2018-08-24T06:54:47.190Z,15.67
2018-08-24T06:58:41.200Z,20.32
2018-08-24T07:02:35.367Z,14.73
2018-08-24T07:06:29.356Z,17.50
2018-08-24T07:10:23.382Z,20.63
2018-08-24T07:14:17.345Z,19.00
2018-08-24T07:18:11.266Z,17.60
2018-08-24T07:22:05.439Z,17.53
2018-08-24T07:25:59.482Z,14.70
2018-08-24T07:29:53.513Z,14.73
2018-08-24T07:33:47.743Z,19.57
2018-08-24T07:37:41.735Z,17.37
2018-08-24T07:41:36.315Z,12.10
2018-08-24T07:45:30.173Z,18.13
2018-08-24T07:49:24.171Z,14.87
2018-08-24T07:53:18.143Z,12.90
2018-08-24T07:57:12.183Z,14.97
2018-08-24T08:01:06.309Z,12.40
2018-08-24T08:05:00.239Z,12.10
2018-08-24T08:08:54.195Z,9.63
2018-08-24T08:12:48.359Z,10.70
2018-08-24T08:16:42.494Z,13.03
2018-08-24T08:20:36.644Z,8.27
2018-08-24T08:24:30.627Z,6.73
2018-08-24T08:28:24.818Z,6.83
2018-08-24T08:32:19.006Z,10.67
2018-08-24T08:36:13.000Z,7.17
2018-08-24T08:40:07.209Z,6.45
2018-08-24T08:44:01.175Z,11.00
2018-08-24T08:47:55.204Z,7.87
2018-08-24T08:51:49.227Z,9.33
2018-08-24T08:55:43.292Z,12.63
2018-08-24T08:59:37.263Z,9.20
2018-08-24T09:03:31.284Z,12.70
2018-08-24T09:07:25.280Z,5.08
2018-08-24T09:11:19.260Z,7.33
2018-08-24T09:15:13.329Z,4.83
2018-08-24T09:19:12.680Z,6.40
2018-08-24T09:23:12.022Z,8.47
2018-08-24T09:27:11.548Z,5.00
2018-08-24T09:31:40.621Z,4.17
2018-08-24T09:35:34.675Z,8.73
2018-08-24T09:39:29.807Z,4.73
2018-08-24T09:43:29.946Z,5.67
2018-08-24T09:47:29.230Z,7.60
2018-08-24T09:51:25.402Z,5.60
2018-08-24T09:55:19.308Z,3.53
2018-08-24T09:59:13.259Z,5.23
2018-08-24T10:03:12.676Z,5.70
2018-08-24T10:07:11.927Z,3.93
2018-08-24T10:11:05.865Z,5.23
2018-08-24T10:14:59.884Z,6.00
2018-08-24T10:18:53.828Z,3.17
2018-08-24T10:22:48.152Z,3.80
2018-08-24T10:26:42.132Z,6.07
2018-08-24T10:30:36.105Z,4.60
2018-08-24T10:34:30.122Z,4.83
2018-08-24T10:38:24.305Z,9.30
2018-08-24T10:42:18.444Z,7.33
2018-08-24T10:46:13.476Z,4.17
2018-08-24T10:50:07.569Z,2.47
2018-08-24T10:54:01.728Z,5.77
2018-08-24T10:57:56.380Z,6.00
2018-08-24T11:01:51.531Z,4.50
2018-08-24T11:05:46.885Z,3.50
2018-08-24T11:09:41.137Z,6.17
2018-08-24T11:13:35.305Z,5.07
2018-08-24T11:17:36.751Z,6.13
2018-08-24T11:21:30.849Z,4.37
2018-08-24T11:25:25.228Z,3.67
2018-08-24T11:29:19.399Z,4.63
2018-08-24T11:33:13.329Z,1.87
2018-08-24T11:37:07.398Z,5.57
2018-08-24T11:41:01.770Z,4.60
2018-08-24T11:44:56.159Z,4.97
2018-08-24T11:48:50.392Z,4.20
2018-08-24T11:52:44.603Z,2.47
2018-08-24T11:56:38.602Z,3.17
2018-08-24T12:00:33.723Z,5.27
2018-08-24T12:04:27.700Z,7.93
2018-08-24T12:08:21.798Z,4.50
2018-08-24T12:12:15.756Z,2.73
2018-08-24T12:16:09.702Z,3.43
2018-08-24T12:20:04.069Z,6.70
2018-08-24T12:23:58.087Z,4.10
2018-08-24T12:27:52.187Z,3.60
2018-08-24T12:31:46.275Z,3.17
2018-08-24T12:35:40.276Z,10.67
2018-08-24T12:39:34.204Z,5.97
2018-08-24T12:43:28.245Z,5.93
2018-08-24T12:47:22.271Z,5.13
2018-08-24T12:51:16.218Z,8.33
2018-08-24T12:55:10.202Z,3.73
2018-08-24T12:59:04.267Z,4.33
2018-08-24T13:02:58.936Z,2.50
2018-08-24T13:06:52.974Z,3.63
2018-08-24T13:10:46.961Z,4.53
2018-08-24T13:14:41.090Z,2.57
2018-08-24T13:18:35.328Z,3.67
2018-08-24T13:22:29.508Z,4.53
2018-08-24T13:26:23.814Z,3.60
2018-08-24T13:30:17.920Z,5.73
2018-08-24T13:34:11.983Z,5.17
2018-08-24T13:38:06.209Z,2.90
2018-08-24T13:42:02.013Z,2.03
2018-08-24T13:45:56.621Z,4.40
2018-08-24T13:49:50.675Z,4.90
2018-08-24T13:53:51.401Z,2.93
2018-08-24T13:57:45.446Z,5.57
2018-08-24T14:01:39.664Z,9.73
2018-08-24T14:05:33.795Z,5.42
2018-08-24T14:09:27.976Z,6.07
2018-08-24T14:13:22.047Z,5.40
2018-08-24T14:17:15.991Z,4.13
2018-08-24T14:21:10.089Z,2.77
2018-08-24T14:25:04.475Z,2.57
2018-08-24T14:28:58.797Z,4.30
2018-08-24T14:32:52.873Z,11.10
2018-08-24T14:36:47.979Z,4.37
2018-08-24T14:40:42.032Z,4.50
2018-08-24T14:44:36.041Z,4.08
2018-08-24T14:48:30.073Z,2.37
2018-08-24T14:52:24.294Z,3.40
2018-08-24T14:56:18.260Z,1.93
2018-08-24T15:00:12.283Z,3.80
2018-08-24T15:04:06.224Z,7.60
2018-08-24T15:08:00.372Z,3.60
2018-08-24T15:11:54.483Z,3.83
2018-08-24T15:15:48.602Z,6.67
2018-08-24T15:19:42.756Z,2.90
2018-08-24T15:23:36.867Z,3.93
2018-08-24T15:27:30.852Z,2.10
2018-08-24T15:31:24.878Z,10.70
2018-08-24T15:35:18.922Z,2.93
2018-08-24T15:39:13.738Z,2.07
2018-08-24T15:43:07.691Z,3.90
2018-08-24T15:47:01.749Z,2.20
2018-08-24T15:50:56.431Z,1.30
2018-08-24T15:54:50.405Z,4.70
2018-08-24T15:58:44.391Z,2.33
2018-08-24T16:02:38.444Z,2.70
2018-08-24T16:06:32.783Z,3.87
2018-08-24T16:10:26.653Z,2.50
2018-08-24T16:14:20.633Z,2.97
2018-08-24T16:18:19.974Z,3.53
2018-08-24T16:22:14.419Z,1.87
2018-08-24T16:26:12.824Z,1.60
2018-08-24T16:30:07.107Z,3.73
2018-08-24T16:34:01.920Z,3.60
2018-08-24T16:37:56.299Z,4.20
2018-08-24T16:41:50.530Z,1.90
2018-08-24T16:45:45.043Z,1.70
2018-08-24T16:49:39.072Z,2.45
2018-08-24T16:53:33.442Z,3.73
2018-08-24T16:57:27.635Z,4.30
2018-08-24T17:01:21.694Z,2.20
2018-08-24T17:05:15.793Z,3.23
2018-08-24T17:09:11.456Z,4.13
2018-08-24T17:13:05.777Z,2.93
2018-08-24T17:16:59.779Z,5.00
2018-08-24T17:20:53.832Z,1.80
2018-08-24T17:24:48.077Z,5.30
2018-08-24T17:28:42.129Z,1.77
2018-08-24T17:32:36.082Z,6.37
2018-08-24T17:36:30.443Z,3.03
2018-08-24T17:40:25.158Z,5.40
2018-08-24T17:44:19.614Z,5.93
2018-08-24T17:48:14.104Z,6.43
2018-08-24T17:52:08.187Z,2.67
2018-08-24T17:56:02.452Z,3.37
2018-08-24T17:59:56.396Z,5.03
2018-08-24T18:03:50.410Z,4.25
2018-08-24T18:07:44.478Z,3.13
2018-08-24T18:11:38.899Z,4.40
2018-08-24T18:15:32.815Z,6.17
2018-08-24T18:19:26.761Z,3.57
2018-08-24T18:23:20.685Z,3.70
2018-08-24T18:27:15.106Z,4.10
2018-08-24T18:31:09.631Z,2.80
2018-08-24T18:35:04.224Z,4.27
2018-08-24T18:38:58.603Z,3.00
2018-08-24T18:42:52.930Z,1.83
2018-08-24T18:46:47.163Z,5.47
2018-08-24T18:50:41.339Z,4.43
2018-08-24T18:54:35.654Z,4.60
2018-08-24T18:58:29.720Z,1.77
2018-08-24T19:02:23.715Z,3.47
2018-08-24T19:06:17.689Z,2.63
2018-08-24T19:10:11.639Z,2.43
2018-08-24T19:14:05.608Z,3.77
2018-08-24T19:18:04.993Z,4.10
2018-08-24T19:22:01.669Z,5.03
2018-08-24T19:25:55.678Z,3.43
2018-08-24T19:29:54.934Z,4.07
2018-08-24T19:33:48.898Z,3.23
2018-08-24T19:37:42.838Z,2.80
2018-08-24T19:41:42.315Z,2.70
2018-08-24T19:45:36.285Z,5.33
2018-08-24T19:49:30.433Z,2.90
2018-08-24T19:53:24.701Z,2.83
2018-08-24T19:57:24.062Z,5.93
2018-08-24T20:01:18.015Z,7.73
2018-08-24T20:05:11.964Z,5.13
2018-08-24T20:09:14.568Z,2.50
2018-08-24T20:13:08.583Z,4.80
2018-08-24T20:17:07.848Z,3.90
2018-08-24T20:21:01.789Z,4.87
2018-08-24T20:24:55.695Z,2.33
2018-08-24T20:28:49.656Z,4.33
2018-08-24T20:32:43.609Z,2.90
2018-08-24T20:36:37.597Z,6.53
2018-08-24T20:40:31.585Z,4.90
2018-08-24T20:44:25.580Z,3.30
2018-08-24T20:48:19.531Z,2.23
2018-08-24T20:52:13.625Z,2.70
2018-08-24T20:56:07.532Z,3.23
2018-08-24T21:00:01.454Z,1.37
2018-08-24T21:03:55.412Z,2.10
2018-08-24T21:07:49.368Z,5.87
2018-08-24T21:11:43.637Z,4.95
2018-08-24T21:15:37.671Z,5.17
2018-08-24T21:19:31.659Z,2.67
2018-08-24T21:23:25.707Z,3.83
2018-08-24T21:27:19.724Z,3.77
2018-08-24T21:31:13.709Z,4.43
2018-08-24T21:35:07.672Z,4.20
2018-08-24T21:39:01.654Z,7.80
2018-08-24T21:42:55.670Z,2.53
2018-08-24T21:46:49.689Z,8.55
2018-08-24T21:50:43.689Z,4.97
2018-08-24T21:54:37.676Z,1.93
2018-08-24T21:58:31.629Z,2.60
2018-08-24T22:02:26.367Z,2.57
2018-08-24T22:06:20.333Z,4.37
2018-08-24T22:10:14.300Z,4.77
2018-08-24T22:14:08.267Z,4.20
2018-08-24T22:18:02.764Z,3.40
2018-08-24T22:21:56.740Z,4.47
2018-08-24T22:25:50.676Z,4.50
2018-08-24T22:29:44.834Z,5.73
2018-08-24T22:33:38.778Z,4.77
2018-08-24T22:37:33.516Z,4.07
2018-08-24T22:41:27.453Z,3.43
2018-08-24T22:45:23.594Z,13.30
2018-08-24T22:49:17.561Z,4.00
2018-08-24T22:53:11.559Z,6.13
2018-08-24T22:57:06.729Z,4.37
2018-08-24T23:01:00.614Z,2.53
2018-08-24T23:04:54.616Z,4.93
2018-08-24T23:08:48.973Z,1.80
2018-08-24T23:12:43.047Z,2.97
2018-08-24T23:16:37.037Z,2.30
2018-08-24T23:20:30.969Z,2.77
2018-08-24T23:24:25.274Z,3.80
2018-08-24T23:28:19.187Z,7.27
2018-08-24T23:32:13.166Z,1.90
2018-08-24T23:36:07.150Z,2.90
2018-08-24T23:40:01.159Z,2.50
2018-08-24T23:43:55.353Z,7.97
2018-08-24T23:47:49.379Z,2.93
2018-08-24T23:51:43.591Z,2.07
2018-08-24T23:55:37.687Z,1.97
2018-08-24T23:59:32.483Z,2.03
